Michel Zakaria

Chefscout - Basel
5 Dez 2027
Sonntag
Verarbeitung

Persönlichkeit

Anpassungsfähigkeit (10) Ehrgeiz (20) Kontroverse (18) Loyalität (3) Druck (16) Professionalität (10) Fairness (18) Temperament (19)

Profil

Trainerstil Demokratisch
Lizenz Kontinentale C
Entschlossenheit 14
Menschenführung 11
Motivation 8
Disziplin 9
Arbeitszufriedenheit
100%
Ermüdung
0%
Rolle Chefscout
Gehalt 38.4K p/W
Vertrag 14.03.2028

Leistung

Verhalten Gut
Trainingseffektivität
44%
Spielerentwicklung
40%
Verletzungsprävention
65%
Taktische Umsetzung
70%

Letzte Ereignisse

Nahm an einer Scouting-Besprechung teil jetzt
Empfahl ein Transferziel jetzt
Empfahl ein Transferziel jetzt
Empfahl ein Transferziel jetzt
Empfahl ein Transferziel jetzt
Empfahl ein Transferziel jetzt
Spieler begutachtet 7T her
Spieler begutachtet 7T her

Aktuell beobachtet

188
Spieler Verein Status Fähigkeit Vertrauen Beobachtet Zuletzt beobachtet Letzte Stimme
Conrad Wallem Bodo/Glimt Aktiv 137 / 142 40% 2 30.11.2027 -
Damián Bobadilla Sport Recife Aktiv 131 / 121 40% 2 30.11.2027 -
Tino Livramento Newcastle United Aktiv 160 / 156 40% 1 30.11.2027 -
Agustín Giay Palmeiras Aktiv 131 / 134 40% 4 28.11.2027 -
Bruno Ogbus Mainz 05 Aktiv 137 / 142 40% 5 28.11.2027 -
Gustavo Martins Grêmio Aktiv 127 / 130 40% 3 28.11.2027 -
Chris Richards Seattle Sounders Aktiv 155 / 157 40% 6 26.11.2027 -
Emil Breivik Molde Aktiv 132 / 125 40% 5 26.11.2027 -
Bryan Ramírez FC Cincinnati Aktiv 125 / 125 40% 9 26.11.2027 -
Pedro Henrique Botafogo Aktiv 142 / 128 40% 5 25.11.2027 -
Renan Lodi Atlético Mineiro Aktiv 145 / 134 40% 6 25.11.2027 -
Guga Fluminense Aktiv 131 / 140 40% 1 25.11.2027 -
Arthur Grêmio Aktiv 143 / 149 40% 6 24.11.2027 -
Marlon Grêmio Aktiv 126 / 120 40% 4 24.11.2027 -
Matheuzinho Corinthians Aktiv 138 / 122 40% 4 23.11.2027 -
Frans Krätzig Red Bull Salzburg Aktiv 129 / 138 40% 10 22.11.2027 -
Marcus Holmgren Pedersen Stabaek Aktiv 138 / 144 40% 7 22.11.2027 -
Sergio Reguilón Inter Miami CF Aktiv 145 / 144 40% 8 21.11.2027 -
Amos Pieper Werder Bremen Aktiv 140 / 133 40% 4 21.11.2027 -
Enzo Díaz Sport Recife Aktiv 134 / 123 40% 4 21.11.2027 -
Josip Stanišić Bayern Munich Aktiv 159 / 154 40% 4 18.11.2027 -
Max Rosenfelder SC Freiburg Aktiv 136 / 150 40% 4 18.11.2027 -
Juan Pablo Freytes Fluminense Aktiv 134 / 136 40% 3 18.11.2027 -
Lucas Piton Vasco da Gama Aktiv 135 / 121 40% 6 17.11.2027 -
Guilherme Arana Fluminense Aktiv 134 / 128 40% 5 16.11.2027 -
Bruno Gomes Internacional Aktiv 139 / 138 40% 6 16.11.2027 -
Naves Palmeiras Aktiv 139 / 139 40% 2 15.11.2027 -
Roméo Lavia Chelsea Aktiv 160 / 167 40% 1 15.11.2027 -
Finn Jeltsch VfB Stuttgart Aktiv 143 / 141 40% 4 13.11.2027 -
Riku Yamane Yokohama F. Marinos Aktiv 134 / 135 40% 4 12.11.2027 -
Danilo Botafogo Aktiv 136 / 153 40% 4 12.11.2027 -
Anton Stach Leeds United Aktiv 153 / 148 40% 14 11.11.2027 -
Fredrik Bjørkan Bodo/Glimt Aktiv 121 / 139 40% 7 10.11.2027 -
Vitinho Botafogo Aktiv 137 / 125 40% 3 09.11.2027 -
Odin Bjørtuft Bodo/Glimt Aktiv 132 / 136 40% 4 08.11.2027 -
Aníbal Moreno River Plate Aktiv 131 / 130 40% 6 02.11.2027 -
Lautaro Di Lollo Boca Juniors Aktiv 134 / 145 40% 4 27.10.2027 -
Santiago Ascacíbar Boca Juniors Aktiv 135 / 135 40% 6 27.10.2027 -
Lukas Ullrich Borussia Mönchengladbach Aktiv 131 / 140 40% 4 26.10.2027 -
Miro Muheim Hamburger SV Aktiv 142 / 140 40% 20 23.10.2027 -
Luciano Juba Bahia Aktiv 133 / 121 40% 3 17.10.2027 -
César Inga Universitario Aktiv 136 / 140 40% 4 15.10.2027 -
Jean Lucas Bahia Aktiv 139 / 146 40% 1 11.10.2027 -
Niklas Dorsch Toronto FC Aktiv 121 / 132 40% 3 09.10.2027 -
Patrick Berg Bodo/Glimt Aktiv 138 / 139 40% 3 08.10.2027 -
Caio Alexandre Bahia Aktiv 139 / 129 40% 1 06.10.2027 -
Lucas Sanabria LA Galaxy Aktiv 125 / 118 40% 3 02.10.2027 -
Martinelli Fluminense Aktiv 138 / 143 40% 1 02.10.2027 -
Nico Elvedi Leeds United Aktiv 141 / 145 40% 6 28.09.2027 -
Alexandro Bernabei Internacional Aktiv 134 / 134 40% 1 28.09.2027 -
Juninho Capixaba Bragantino Aktiv 127 / 129 40% 1 24.09.2027 -
Miles Robinson FC Cincinnati Aktiv 145 / 131 40% 1 22.09.2027 -
Olivier Deman Werder Bremen Aktiv 141 / 129 40% 1 21.09.2027 -
Ángelo Preciado Atlético Mineiro Aktiv 131 / 140 40% 1 20.09.2027 -
Matheus Thuler Vissel Kobe Aktiv 127 / 142 40% 2 18.09.2027 -
Hiroki Ito Bayern Munich Aktiv 150 / 154 40% 1 18.09.2027 -
Nicolai Remberg Hamburger SV Aktiv 136 / 148 40% 2 16.09.2027 -
Mauro Arambarri River Plate Aktiv 148 / 157 40% 1 11.09.2027 -
Andreas Hanche-Olsen Chicago Fire Aktiv 124 / 115 40% 1 11.09.2027 -
Aljoscha Kemlein Union Berlin Aktiv 132 / 139 40% 1 07.09.2027 -
Leonidas Stergiou VfB Stuttgart Aktiv 139 / 138 40% 2 05.09.2027 -
Metinho Sion Aktiv 135 / 142 40% 1 04.09.2027 -
Matías Palacios Al Ain Aktiv 130 / 144 40% 1 31.08.2027 -
Mamadou Coulibaly Al Jazira Aktiv 127 / 119 40% 1 30.08.2027 -
Marius Marin Al Nasr Aktiv 135 / 143 40% 1 30.08.2027 -
David Douděra FC Cincinnati Aktiv 122 / 149 40% 1 24.08.2027 -
Nicolás Giménez Al Wasl Aktiv 133 / 148 40% 1 21.08.2027 -
Max Finkgräfe RB Leipzig Aktiv 133 / 134 40% 1 21.08.2027 -
Djibril Sow Genoa Aktiv 144 / 152 40% 4 19.08.2027 -
Rolando Mandragora Torino Aktiv 152 / 154 40% 1 19.08.2027 -
Michel Ndary Adopo Cagliari Aktiv 147 / 152 40% 1 19.08.2027 -
Zakaria El Ouahdi Hamburger SV Aktiv 134 / 126 40% 3 18.08.2027 -
Nicolò Fagioli Fiorentina Aktiv 145 / 150 40% 2 18.08.2027 -
Mathías Olivera Napoli Aktiv 147 / 144 40% 1 18.08.2027 -
Trevoh Chalobah Como Aktiv 157 / 152 40% 2 17.08.2027 -
Simone Canestrelli Pisa Aktiv 137 / 138 40% 1 17.08.2027 -
Hans Nicolussi Caviglia Parma Aktiv 139 / 130 40% 1 17.08.2027 -
Matteo Pessina Monza Aktiv 135 / 143 40% 2 16.08.2027 -
Thierry Rendall Correia Venezia Aktiv 144 / 143 40% 1 16.08.2027 -
Raoul Bellanova Atalanta Aktiv 158 / 156 40% 1 16.08.2027 -
Alessandro Buongiorno Udinese Aktiv 160 / 155 40% 12 13.08.2027 -
Ilario Monterisi Frosinone Aktiv 129 / 141 40% 1 13.08.2027 -
Máximo Perrone Como Aktiv 143 / 146 40% 1 12.08.2027 -
Samuele Angori Pisa Aktiv 133 / 134 40% 1 12.08.2027 -
Adrià Altimira Deportivo La Coruña Aktiv 138 / 141 40% 6 11.08.2027 -
Nicolò Rovella Lazio Aktiv 156 / 158 40% 2 10.08.2027 -
Adam Wharton Crystal Palace Aktiv 155 / 160 40% 5 09.08.2027 -
Exequiel Palacios Ipswich Town Aktiv 161 / 150 40% 13 09.08.2027 -
Guille Rosas Gijón Aktiv 143 / 133 40% 6 09.08.2027 -
Tim Iroegbunam Hull City Aktiv 142 / 146 40% 10 08.08.2027 -
Bosun Lawal Stoke City Aktiv 137 / 138 40% 1 08.08.2027 -
Stephen Eustáquio Swansea City Aktiv 141 / 149 40% 4 07.08.2027 -
Kenny Tete Fulham Aktiv 147 / 144 40% 5 06.08.2027 -
Toby Collyer West Bromwich Albion Aktiv 135 / 131 40% 3 06.08.2027 -
Saša Lukić Ipswich Town Aktiv 145 / 152 40% 17 05.08.2027 -
Dara O'Shea Ipswich Town Aktiv 137 / 136 40% 17 05.08.2027 -
Juanlu Bournemouth Aktiv 148 / 155 40% 8 05.08.2027 -
Aaron Hickey Brentford Aktiv 153 / 159 40% 14 03.08.2027 -
Nicolas Madsen Queens Park Rangers Aktiv 137 / 124 40% 3 03.08.2027 -
Alex Scott Bournemouth Aktiv 160 / 152 40% 5 02.08.2027 -
Luke McNally Bristol City Aktiv 140 / 141 40% 7 02.08.2027 -
Baltazar Sion Bericht bereit 112 / 126 72% 1 02.08.2027 -
Gustavo Hamer Sheffield United Aktiv 136 / 144 40% 2 30.07.2027 -
Flynn Downes Southampton Aktiv 136 / 130 40% 1 30.07.2027 -
Jacques Ekomié Wrexham Aktiv 130 / 129 40% 4 29.07.2027 -
Issa Kaboré Wrexham Aktiv 132 / 127 40% 8 26.07.2027 -
Noah Sadiki Sunderland Aktiv 142 / 160 40% 9 23.07.2027 -
James Garner Everton Aktiv 152 / 158 40% 6 23.07.2027 -
Florentino Luís Ipswich Town Aktiv 145 / 140 40% 10 23.07.2027 -
Matthew Targett Hull City Aktiv 138 / 129 40% 8 18.07.2027 -
Imrân Louza Watford Aktiv 137 / 127 40% 2 16.07.2027 -
Yehor Yarmoliuk Brentford Aktiv 155 / 148 40% 11 14.07.2027 -
Xaver Schlager Nottingham Forest Aktiv 156 / 150 40% 10 13.07.2027 -
Ethan Galbraith Swansea City Aktiv 140 / 131 40% 7 12.07.2027 -
Harry Clarke Preston Aktiv 127 / 131 40% 4 11.07.2027 -
Callum Brittain Middlesbrough Aktiv 133 / 131 40% 2 09.07.2027 -
Milan van Ewijk Coventry City Aktiv 129 / 129 40% 7 08.07.2027 -
Japhet Tanganga Sheffield United Aktiv 132 / 130 40% 5 08.07.2027 -
Bobby Thomas Coventry City Aktiv 142 / 125 40% 4 06.07.2027 -
Jacob Greaves Ipswich Town Aktiv 145 / 148 40% 4 04.07.2027 -
Ben Nelson Leicester City Aktiv 134 / 128 40% 1 03.07.2027 -
Michael Cooper Sheffield United Aktiv 130 / 129 40% 1 28.06.2027 -
Nicolas Schmid Portsmouth Aktiv 123 / 131 40% 1 28.06.2027 -
Elia Caprile Cagliari Aktiv 153 / 157 40% 1 28.06.2027 -
Brooke Norton-Cuffy Hull City Aktiv 146 / 139 40% 12 27.06.2027 -
Edoardo Bove Watford Aktiv 130 / 138 40% 5 27.06.2027 -
Nordi Mukiele Sunderland Aktiv 151 / 140 40% 11 24.06.2027 -
Jean Butez Hellas Verona Aktiv 145 / 151 40% 1 16.06.2027 -
Nathan Trott Cardiff City Aktiv 131 / 131 40% 1 16.06.2027 -
Ferdi Kadıoğlu Stoke City Aktiv 148 / 146 40% 1 15.06.2027 -
Nobel Mendy Hull City Aktiv 139 / 136 40% 1 07.06.2027 -
Manuel Akanji Inter Aktiv 155 / 145 40% 7 03.06.2027 -
Éderson Atalanta Aktiv 162 / 165 40% 3 03.06.2027 -
Mao Hosoya Anderlecht Verhandlung 134 / 135 90% 1 01.06.2027 -
Facundo Torres KAA Gent Aktiv 134 / 134 67% 1 01.06.2027 Befürworten
Ethan Ampadu Leeds United Aktiv 142 / 144 40% 3 29.05.2027 -
Mohamed Belloumi Hull City Aktiv 133 / 140 40% 4 29.05.2027 -
Sorba Thomas Stoke City Aktiv 130 / 121 40% 1 29.05.2027 -
Welington Southampton Aktiv 131 / 129 40% 3 22.05.2027 -
Curtis Jones Inter Aktiv 159 / 155 40% 1 20.05.2027 -
Habib Diarra Sunderland Aktiv 139 / 150 40% 3 14.05.2027 -
Lorenzo Amatucci Deportivo La Coruña Aktiv 137 / 127 40% 2 14.05.2027 -
Leon Goretzka Aston Villa Aktiv 156 / 162 40% 2 12.05.2027 -
Caspar Jander Southampton Aktiv 129 / 139 40% 5 08.05.2027 -
Marcus Edwards Burnley Aktiv 145 / 132 40% 1 08.05.2027 -
Tom Fellows Southampton Aktiv 135 / 137 40% 1 08.05.2027 -
Rodrigo Gomes Wolverhampton Aktiv 140 / 136 40% 1 05.05.2027 -
Lewis Cook Bournemouth Aktiv 146 / 154 40% 3 30.04.2027 -
Jordan Beyer Burnley Aktiv 133 / 127 40% 3 25.04.2027 -
Ilyas Ansah Hull City Aktiv 137 / 137 40% 4 24.04.2027 -
Léo Scienza Southampton Aktiv 145 / 144 40% 2 24.04.2027 -
Finn Azaz Southampton Aktiv 126 / 127 40% 1 24.04.2027 -
Jamie Gittens Newcastle United Aktiv 142 / 149 40% 3 20.04.2027 -
Zizo Al Ahly Aktiv 131 / 121 40% 3 20.04.2027 -
Lennart Karl VfL Wolfsburg Aktiv 136 / 149 40% 1 17.04.2027 -
Igor Burnley Aktiv 146 / 152 40% 4 07.04.2027 -
Marius Wolf FC Augsburg Aktiv 128 / 134 40% 4 05.04.2027 -
Gabriel Gudmundsson Leeds United Aktiv 136 / 131 40% 3 18.03.2027 -
Lukáš Provod Slavia Prague Aktiv 139 / 141 40% 2 16.03.2027 -
Anel Ahmedhodžić Burnley Aktiv 141 / 137 40% 2 16.03.2027 -
Richarlison Everton Aktiv 140 / 130 40% 1 16.03.2027 -
Luís Henrique Inter Aktiv 138 / 142 40% 1 10.03.2027 -
Tyrese Campbell Sheffield United Aktiv 133 / 125 40% 1 10.03.2027 -
Óscar Mingueza Crystal Palace Aktiv 152 / 137 40% 1 27.02.2027 -
Sander Berge Fulham Aktiv 147 / 155 40% 3 21.02.2027 -
Musa Barrow Al-Khaleej Aktiv 128 / 128 40% 2 15.02.2027 -
Rúben Neves Al-Hilal Aktiv 151 / 145 40% 1 15.02.2027 -
Jack Rudoni Coventry City Aktiv 130 / 129 40% 1 15.02.2027 -
Eduard Spertsyan Al-Ahli Aktiv 155 / 138 40% 1 15.02.2027 -
Noah Okafor Leeds United Aktiv 143 / 152 40% 1 13.02.2027 -
Quinten Timber Crystal Palace Aktiv 153 / 143 40% 1 09.02.2027 -
Brennan Johnson Everton Aktiv 147 / 133 40% 2 07.02.2027 -
Zeki Amdouni Burnley Aktiv 139 / 129 40% 1 07.02.2027 -
Kwadwo Baah Watford Aktiv 124 / 118 40% 1 04.02.2027 -
Haissem Hassan Bloemfontein Celtic Aktiv 142 / 123 40% 1 02.02.2027 -
Marquinhos Spartak Moscow Aktiv 127 / 128 40% 1 02.02.2027 -
Charles De Ketelaere Atalanta Aktiv 158 / 161 40% 1 02.02.2027 -
Pedro Porro Tottenham Aktiv 152 / 136 40% 4 26.01.2027 -
Sergej Milinković-Savić Al-Hilal Aktiv 160 / 152 40% 1 25.01.2027 -
Tomáš Souček West Ham United Aktiv 136 / 126 40% 1 25.01.2027 -
Ibrahim Sangaré Nottingham Forest Aktiv 152 / 135 40% 1 07.01.2027 -
Konstantin Tyukavin KV Mechelen Aktiv 132 / 133 66% 1 01.01.2027 Befürworten
Stanislav Agkatsev CSKA Moscow Aktiv 132 / 133 89% 1 01.01.2027 Befürworten
Bitello Alavés Aktiv 135 / 135 68% 1 01.01.2027 Befürworten
Lukas Daschner St. Gallen Aktiv 116 / 124 72% 1 31.08.2026 Befürworten
Ivan Schranz Slavia Prague Aktiv 135 / 123 40% 1 19.08.2026 -
Maximilian Ullmann Grasshopper Aktiv 115 / 111 72% 1 17.08.2026 Befürworten
Raphael Onyedika Eintracht Frankfurt Aktiv 135 / 130 40% 1 02.08.2026 -